Time;durP1;ratioP1;P1;durP2;ratioP2;P2;SDS_P1;SDS_P2;PMS_P1;PMS_P2;Temp;Humidity;BMP_temperature;BMP_pressure;BME280_temperature;BME280_humidity;BME280_pressure;Samples;Min_cycle;Max_cycle;Signal;HPM_P1;HPM_P2
2022/05/07 00:01:25;;;;;;;;;;;21.30;98.00;;;;;;5005068;28;19963;-61
2022/05/07 00:03:52;;;;;;;;;;;21.30;97.90;;;;;;4999455;28;19930;-60
2022/05/07 00:06:19;;;;;;;;;;;21.30;97.70;;;;;;5000627;28;19937;-61
2022/05/07 00:08:46;;;;;;;;;;;21.30;97.50;;;;;;5004873;28;19936;-60
2022/05/07 00:11:15;;;;;;;;;;;21.30;97.30;;;;;;5012487;28;19928;-61
2022/05/07 00:13:42;;;;;;;;;;;21.20;97.10;;;;;;5010137;28;20001;-59
2022/05/07 00:18:55;;;;;;;;;;;21.20;96.90;;;;;;4999142;28;20554;-61
2022/05/07 00:21:22;;;;;;;;;;;21.20;96.60;;;;;;5005927;28;19937;-60
2022/05/07 00:23:49;;;;;;;;;;;21.20;96.50;;;;;;5006649;28;19953;-59
2022/05/07 00:26:17;;;;;;;;;;;21.20;96.30;;;;;;5010056;28;20304;-60
2022/05/07 00:28:45;;;;;;;;;;;21.20;96.20;;;;;;5019105;28;19929;-61
2022/05/07 00:31:13;;;;;;;;;;;21.20;96.10;;;;;;5003168;28;19932;-61
2022/05/07 00:33:40;;;;;;;;;;;21.20;95.90;;;;;;5006248;28;19941;-60
2022/05/07 00:36:07;;;;;;;;;;;21.20;95.80;;;;;;5005358;28;20440;-60
2022/05/07 00:38:34;;;;;;;;;;;21.20;95.70;;;;;;5000185;28;20393;-61
2022/05/07 00:41:01;;;;;;;;;;;21.20;95.60;;;;;;4999894;28;19952;-59
2022/05/07 00:43:35;;;;;;;;;;;21.20;95.50;;;;;;4999080;28;19937;-62
2022/05/07 00:46:02;;;;;;;;;;;21.20;95.30;;;;;;5005983;28;19929;-61
2022/05/07 00:48:30;;;;;;;;;;;21.10;95.10;;;;;;5006083;28;19941;-60
2022/05/07 00:53:45;;;;;;;;;;;21.20;95.00;;;;;;5005031;28;19929;-60
2022/05/07 00:56:12;;;;;;;;;;;21.10;94.90;;;;;;5004710;28;19929;-60
2022/05/07 00:58:39;;;;;;;;;;;21.10;94.70;;;;;;5004921;28;19925;-59
2022/05/07 01:01:06;;;;;;;;;;;21.10;94.60;;;;;;5000632;28;19929;-57
2022/05/07 01:03:34;;;;;;;;;;;21.10;94.60;;;;;;4999824;28;19948;-60
2022/05/07 01:06:02;;;;;;;;;;;21.10;94.40;;;;;;4995993;28;19941;-60
2022/05/07 01:08:29;;;;;;;;;;;21.10;94.40;;;;;;5004946;28;19937;-60
2022/05/07 01:10:59;;;;;;;;;;;21.10;94.20;;;;;;5015848;28;19930;-59
2022/05/07 01:13:28;;;;;;;;;;;21.10;94.20;;;;;;5005301;28;19936;-60
2022/05/07 01:15:57;;;;;;;;;;;21.10;94.20;;;;;;5007314;28;19937;-59
2022/05/07 01:18:30;;;;;;;;;;;21.10;94.10;;;;;;5028030;28;20300;-59
2022/05/07 01:20:58;;;;;;;;;;;21.10;93.90;;;;;;4999514;28;19930;-60
2022/05/07 01:23:27;;;;;;;;;;;21.10;93.90;;;;;;5004964;28;19934;-60
2022/05/07 01:25:59;;;;;;;;;;;21.00;93.80;;;;;;4998435;28;19942;-60
2022/05/07 01:28:30;;;;;;;;;;;21.00;93.80;;;;;;5028972;28;19930;-61
2022/05/07 01:30:58;;;;;;;;;;;21.00;93.80;;;;;;5003932;28;19937;-59
2022/05/07 01:33:26;;;;;;;;;;;21.00;93.70;;;;;;4996595;28;19941;-59
2022/05/07 01:35:53;;;;;;;;;;;21.00;93.70;;;;;;5001529;28;20409;-59
2022/05/07 01:38:21;;;;;;;;;;;21.00;93.70;;;;;;5037391;28;19925;-60
2022/05/07 01:40:49;;;;;;;;;;;21.00;93.60;;;;;;4999160;28;19929;-60
2022/05/07 01:43:17;;;;;;;;;;;21.00;93.60;;;;;;5004937;28;19929;-60
2022/05/07 01:45:46;;;;;;;;;;;21.00;93.50;;;;;;5005438;28;20715;-59
2022/05/07 01:48:14;;;;;;;;;;;21.00;93.40;;;;;;4997560;28;19933;-60
2022/05/07 01:50:46;;;;;;;;;;;21.00;93.40;;;;;;5027076;28;19933;-60
2022/05/07 01:53:17;;;;;;;;;;;21.00;93.30;;;;;;5005899;28;20297;-59
2022/05/07 01:55:48;;;;;;;;;;;21.00;93.40;;;;;;5009130;28;19934;-59
2022/05/07 01:58:18;;;;;;;;;;;20.90;93.20;;;;;;5005632;28;20011;-61
2022/05/07 02:00:45;;;;;;;;;;;20.90;93.10;;;;;;5004881;28;19934;-59
2022/05/07 02:03:13;;;;;;;;;;;20.90;93.20;;;;;;5004199;28;19936;-60
2022/05/07 02:05:40;;;;;;;;;;;20.90;93.10;;;;;;5002341;28;19992;-58
2022/05/07 02:08:08;;;;;;;;;;;20.90;93.20;;;;;;5003891;28;19932;-59
2022/05/07 02:10:36;;;;;;;;;;;20.90;93.00;;;;;;5003885;28;20070;-60
2022/05/07 02:13:03;;;;;;;;;;;20.90;93.00;;;;;;5005312;28;20594;-59
2022/05/07 02:15:33;;;;;;;;;;;20.90;93.00;;;;;;5007337;28;20393;-60
2022/05/07 02:18:00;;;;;;;;;;;20.90;92.90;;;;;;5012837;28;20325;-59
2022/05/07 02:20:28;;;;;;;;;;;20.90;93.00;;;;;;5001546;28;19936;-58
2022/05/07 02:22:58;;;;;;;;;;;20.90;92.90;;;;;;4996562;28;19937;-60
2022/05/07 02:25:25;;;;;;;;;;;20.90;92.90;;;;;;4998396;28;19933;-59
2022/05/07 02:27:59;;;;;;;;;;;20.90;92.90;;;;;;5001289;28;20403;-60
2022/05/07 02:30:27;;;;;;;;;;;20.80;92.80;;;;;;5002488;28;19925;-61
2022/05/07 02:32:59;;;;;;;;;;;20.80;92.80;;;;;;5001835;28;20001;-60
2022/05/07 02:35:27;;;;;;;;;;;20.80;92.80;;;;;;5004910;28;19930;-60
2022/05/07 02:37:55;;;;;;;;;;;20.80;92.80;;;;;;5007887;28;19944;-60
2022/05/07 02:40:22;;;;;;;;;;;20.80;92.70;;;;;;5003588;28;19930;-60
2022/05/07 02:42:50;;;;;;;;;;;20.80;92.80;;;;;;4998959;28;19929;-58
2022/05/07 02:45:18;;;;;;;;;;;20.80;92.70;;;;;;5002673;28;20128;-60
2022/05/07 02:47:49;;;;;;;;;;;20.80;92.70;;;;;;5016964;28;19936;-59
2022/05/07 02:50:19;;;;;;;;;;;20.80;92.70;;;;;;5005299;28;20657;-60
2022/05/07 02:52:46;;;;;;;;;;;20.80;92.70;;;;;;4996245;28;19929;-58
2022/05/07 02:55:13;;;;;;;;;;;20.80;92.60;;;;;;5007604;28;19929;-60
2022/05/07 02:57:46;;;;;;;;;;;20.80;92.60;;;;;;5000568;28;20412;-60
2022/05/07 03:00:16;;;;;;;;;;;20.70;92.60;;;;;;5001909;28;19941;-60
2022/05/07 03:02:43;;;;;;;;;;;20.70;92.50;;;;;;5003289;28;19929;-61
2022/05/07 03:05:10;;;;;;;;;;;20.70;92.50;;;;;;5003273;28;20432;-60
2022/05/07 03:07:38;;;;;;;;;;;20.70;92.50;;;;;;5002282;28;20216;-60
2022/05/07 03:10:13;;;;;;;;;;;20.70;92.50;;;;;;4997828;28;19930;-60
2022/05/07 03:12:40;;;;;;;;;;;20.70;92.40;;;;;;5002027;28;19940;-60
2022/05/07 03:15:08;;;;;;;;;;;20.70;92.40;;;;;;5011315;28;19952;-59
2022/05/07 03:17:36;;;;;;;;;;;20.70;92.40;;;;;;5011024;28;19964;-60
2022/05/07 03:20:08;;;;;;;;;;;20.70;92.40;;;;;;5008298;28;19932;-61
2022/05/07 03:22:35;;;;;;;;;;;20.70;92.40;;;;;;5003621;28;19948;-60
2022/05/07 03:25:03;;;;;;;;;;;20.70;92.40;;;;;;4991070;28;19945;-60
2022/05/07 03:27:32;;;;;;;;;;;20.70;92.30;;;;;;5002679;28;19933;-60
2022/05/07 03:30:00;;;;;;;;;;;20.60;92.30;;;;;;5007965;28;19972;-60
2022/05/07 03:32:35;;;;;;;;;;;20.60;92.40;;;;;;5028579;28;19937;-59
2022/05/07 03:35:02;;;;;;;;;;;20.60;92.30;;;;;;5003906;28;19925;-60
2022/05/07 03:37:30;;;;;;;;;;;20.60;92.30;;;;;;5003975;28;20346;-61
2022/05/07 03:39:57;;;;;;;;;;;20.60;92.20;;;;;;5006974;28;19929;-61
2022/05/07 03:42:27;;;;;;;;;;;20.60;92.30;;;;;;5006925;28;19961;-61
2022/05/07 03:44:55;;;;;;;;;;;20.60;92.10;;;;;;5002982;28;20064;-61
2022/05/07 03:47:22;;;;;;;;;;;20.60;92.10;;;;;;5037029;28;19929;-60
2022/05/07 03:49:50;;;;;;;;;;;20.60;92.10;;;;;;5007159;28;20321;-58
2022/05/07 03:55:08;;;;;;;;;;;20.60;92.10;;;;;;5002061;28;20286;-59
2022/05/07 03:57:36;;;;;;;;;;;20.60;92.00;;;;;;5041902;28;19929;-58
2022/05/07 04:00:03;;;;;;;;;;;20.60;92.00;;;;;;5005592;28;19984;-59
2022/05/07 04:02:40;;;;;;;;;;;20.60;92.00;;;;;;5008268;28;19926;-60
2022/05/07 04:05:20;;;;;;;;;;;20.50;92.00;;;;;;5001557;28;20444;-60
2022/05/07 04:07:48;;;;;;;;;;;20.50;92.00;;;;;;4987986;28;19930;-58
2022/05/07 04:10:15;;;;;;;;;;;20.60;92.00;;;;;;5010798;28;19933;-59
2022/05/07 04:12:47;;;;;;;;;;;20.50;92.00;;;;;;5017588;28;19940;-59
2022/05/07 04:15:14;;;;;;;;;;;20.50;91.90;;;;;;5002592;28;19933;-61
2022/05/07 04:17:41;;;;;;;;;;;20.50;91.90;;;;;;5033153;28;20309;-58
2022/05/07 04:20:09;;;;;;;;;;;20.50;91.90;;;;;;5015755;28;20361;-59
2022/05/07 04:22:38;;;;;;;;;;;20.50;91.90;;;;;;5005782;28;19930;-59
2022/05/07 04:25:08;;;;;;;;;;;20.40;91.90;;;;;;5008022;28;19937;-60
2022/05/07 04:27:40;;;;;;;;;;;20.50;91.80;;;;;;4999722;28;19929;-59
2022/05/07 04:30:09;;;;;;;;;;;20.40;91.70;;;;;;5008901;28;19933;-59
2022/05/07 04:32:36;;;;;;;;;;;20.50;91.70;;;;;;5006746;28;19940;-60
2022/05/07 04:35:06;;;;;;;;;;;20.50;91.70;;;;;;5004283;28;19936;-60
2022/05/07 04:37:36;;;;;;;;;;;20.40;91.60;;;;;;4999202;28;19941;-61
2022/05/07 04:40:04;;;;;;;;;;;20.40;91.60;;;;;;5004580;28;20297;-62
2022/05/07 04:42:39;;;;;;;;;;;20.40;91.60;;;;;;5005409;28;19926;-62
2022/05/07 04:45:07;;;;;;;;;;;20.40;91.50;;;;;;5008257;28;19933;-59
2022/05/07 04:47:57;;;;;;;;;;;20.40;91.50;;;;;;4997659;28;19930;-57
2022/05/07 04:50:29;;;;;;;;;;;20.40;91.60;;;;;;4996995;28;20302;-59
2022/05/07 04:53:25;;;;;;;;;;;20.50;91.60;;;;;;5004072;28;19938;-60
2022/05/07 04:55:55;;;;;;;;;;;20.40;91.60;;;;;;5002056;28;19936;-60
2022/05/07 04:58:24;;;;;;;;;;;20.40;91.60;;;;;;5001558;28;19925;-59
2022/05/07 05:00:52;;;;;;;;;;;20.40;91.60;;;;;;5003191;28;19929;-59
2022/05/07 05:03:23;;;;;;;;;;;20.50;91.60;;;;;;5003553;28;20409;-60
2022/05/07 05:06:05;;;;;;;;;;;20.40;91.60;;;;;;5010936;28;20467;-60
2022/05/07 05:08:58;;;;;;;;;;;20.50;91.60;;;;;;5003682;28;19926;-61
2022/05/07 05:11:25;;;;;;;;;;;20.50;91.60;;;;;;5008342;28;20145;-60
2022/05/07 05:13:53;;;;;;;;;;;20.50;91.70;;;;;;5004902;28;19941;-60
2022/05/07 05:16:21;;;;;;;;;;;20.50;91.80;;;;;;5007291;28;19925;-60
2022/05/07 05:18:53;;;;;;;;;;;20.50;92.00;;;;;;4999760;28;19934;-61
2022/05/07 05:21:21;;;;;;;;;;;20.60;92.50;;;;;;4986994;28;19929;-60
2022/05/07 05:24:05;;;;;;;;;;;20.60;92.70;;;;;;5011999;28;19936;-59
2022/05/07 05:26:34;;;;;;;;;;;20.60;92.50;;;;;;4999665;28;19930;-56
2022/05/07 05:29:05;;;;;;;;;;;20.60;92.60;;;;;;5004898;28;19937;-59
2022/05/07 05:31:33;;;;;;;;;;;20.60;92.50;;;;;;4998598;28;19932;-60
2022/05/07 05:34:09;;;;;;;;;;;20.60;92.60;;;;;;5007112;28;19937;-62
2022/05/07 05:36:56;;;;;;;;;;;20.60;92.80;;;;;;5006260;28;20413;-63
2022/05/07 05:39:25;;;;;;;;;;;20.70;93.30;;;;;;4999713;28;19929;-63
2022/05/07 05:41:54;;;;;;;;;;;20.80;93.40;;;;;;5001240;28;19932;-62
2022/05/07 05:44:24;;;;;;;;;;;20.80;93.40;;;;;;5004596;28;19949;-62
2022/05/07 05:46:53;;;;;;;;;;;20.80;93.80;;;;;;5007422;28;19933;-61
2022/05/07 05:49:21;;;;;;;;;;;20.80;93.70;;;;;;5011758;28;20378;-58
2022/05/07 05:51:50;;;;;;;;;;;20.80;93.90;;;;;;4996507;28;19940;-60
2022/05/07 05:54:17;;;;;;;;;;;20.80;94.00;;;;;;5001158;28;20145;-57
2022/05/07 05:56:45;;;;;;;;;;;20.80;94.20;;;;;;4993895;28;19933;-60
2022/05/07 05:59:14;;;;;;;;;;;20.80;94.40;;;;;;5002760;28;19933;-60
2022/05/07 06:01:47;;;;;;;;;;;20.80;94.40;;;;;;4996943;28;19952;-54
2022/05/07 06:04:24;;;;;;;;;;;20.80;94.20;;;;;;4996413;28;19925;-58
2022/05/07 06:06:53;;;;;;;;;;;20.70;93.70;;;;;;4997358;28;19930;-59
2022/05/07 06:09:23;;;;;;;;;;;20.70;92.80;;;;;;4995015;28;20070;-57
2022/05/07 06:11:51;;;;;;;;;;;20.60;92.20;;;;;;4992900;28;19934;-60
2022/05/07 06:14:19;;;;;;;;;;;20.60;92.00;;;;;;4998467;28;20594;-57
2022/05/07 06:16:48;;;;;;;;;;;20.60;91.60;;;;;;5028457;28;19933;-57
2022/05/07 06:19:17;;;;;;;;;;;20.60;91.20;;;;;;5026918;28;19929;-58
2022/05/07 06:21:51;;;;;;;;;;;20.60;91.50;;;;;;5026465;28;19937;-57
2022/05/07 06:29:59;;;;;;;;;;;20.60;94.00;;;;;;4999345;28;19941;-57
2022/05/07 06:32:33;;;;;;;;;;;20.70;92.90;;;;;;4992510;28;19929;-59
2022/05/07 06:35:05;;;;;;;;;;;20.70;92.80;;;;;;4991499;28;19933;-57
2022/05/07 06:37:40;;;;;;;;;;;20.70;92.70;;;;;;4999067;28;20389;-54
2022/05/07 06:40:08;;;;;;;;;;;20.70;93.00;;;;;;4997126;28;19981;-56
2022/05/07 06:42:41;;;;;;;;;;;20.70;93.20;;;;;;4996476;28;19933;-58
2022/05/07 06:45:18;;;;;;;;;;;20.70;93.40;;;;;;4995353;28;19929;-58
2022/05/07 06:47:45;;;;;;;;;;;20.70;93.50;;;;;;5001040;28;19933;-57
2022/05/07 06:50:13;;;;;;;;;;;20.70;93.50;;;;;;5000742;28;19937;-57
2022/05/07 06:52:44;;;;;;;;;;;20.70;93.60;;;;;;5000090;28;20416;-56
2022/05/07 06:55:15;;;;;;;;;;;20.70;93.60;;;;;;5015227;28;20328;-58
2022/05/07 06:57:43;;;;;;;;;;;20.70;93.60;;;;;;5010341;28;19975;-59
2022/05/07 07:00:28;;;;;;;;;;;20.70;93.60;;;;;;4996324;28;19933;-61
2022/05/07 07:02:56;;;;;;;;;;;20.70;93.60;;;;;;4998125;28;19945;-59
2022/05/07 07:05:23;;;;;;;;;;;20.70;93.80;;;;;;4999711;28;19926;-61
2022/05/07 07:07:50;;;;;;;;;;;20.70;93.80;;;;;;5001516;28;19929;-59
2022/05/07 07:10:17;;;;;;;;;;;20.70;94.10;;;;;;4996790;28;20220;-58
2022/05/07 07:12:44;;;;;;;;;;;20.80;94.30;;;;;;5004979;28;19925;-56
2022/05/07 07:15:12;;;;;;;;;;;20.80;94.40;;;;;;4999763;28;20116;-59
2022/05/07 07:17:39;;;;;;;;;;;20.80;94.60;;;;;;4997586;28;19936;-54
2022/05/07 07:20:07;;;;;;;;;;;20.90;94.80;;;;;;4998115;28;20451;-60
2022/05/07 07:22:36;;;;;;;;;;;20.90;95.00;;;;;;4999254;28;20288;-58
2022/05/07 07:25:05;;;;;;;;;;;20.90;95.10;;;;;;5017572;28;19929;-58
2022/05/07 07:27:34;;;;;;;;;;;21.00;95.30;;;;;;5004514;28;20408;-60
2022/05/07 07:30:01;;;;;;;;;;;20.90;95.70;;;;;;5000621;28;19929;-60
2022/05/07 07:32:30;;;;;;;;;;;20.90;96.10;;;;;;4997558;28;19930;-57
2022/05/07 07:34:57;;;;;;;;;;;21.00;96.30;;;;;;5003465;28;19925;-60
2022/05/07 07:37:25;;;;;;;;;;;21.00;96.00;;;;;;5001776;28;19930;-59
2022/05/07 07:39:52;;;;;;;;;;;21.00;96.30;;;;;;4993132;28;19962;-59
2022/05/07 07:42:23;;;;;;;;;;;21.00;96.30;;;;;;4996421;28;19937;-60
2022/05/07 07:47:56;;;;;;;;;;;21.00;96.40;;;;;;5002725;28;19933;-59
2022/05/07 07:50:34;;;;;;;;;;;21.10;97.70;;;;;;4998350;28;19933;-61
2022/05/07 07:53:01;;;;;;;;;;;21.20;97.90;;;;;;5005360;28;20388;-61
2022/05/07 07:55:28;;;;;;;;;;;21.10;97.40;;;;;;5006014;28;19965;-58
2022/05/07 07:57:56;;;;;;;;;;;21.10;97.20;;;;;;5007743;28;19936;-61
2022/05/07 08:00:24;;;;;;;;;;;21.10;97.20;;;;;;5003070;28;19926;-61
2022/05/07 08:02:52;;;;;;;;;;;21.10;97.20;;;;;;5005100;28;19930;-59
2022/05/07 08:05:24;;;;;;;;;;;21.10;97.00;;;;;;5002415;28;20334;-60
2022/05/07 08:13:24;;;;;;;;;;;21.10;96.80;;;;;;5005473;28;19926;-59
2022/05/07 08:15:52;;;;;;;;;;;21.10;96.90;;;;;;5009343;28;19997;-59
2022/05/07 08:18:20;;;;;;;;;;;21.10;96.90;;;;;;5003477;28;19937;-57
2022/05/07 08:20:47;;;;;;;;;;;21.20;97.00;;;;;;5016231;28;20019;-61
2022/05/07 08:23:14;;;;;;;;;;;21.20;96.90;;;;;;5014747;28;19955;-59
2022/05/07 08:25:41;;;;;;;;;;;21.20;96.90;;;;;;5012586;28;19944;-60
2022/05/07 08:28:08;;;;;;;;;;;21.20;97.20;;;;;;5004866;28;20028;-59
2022/05/07 08:30:39;;;;;;;;;;;21.20;97.10;;;;;;5008753;28;19940;-61
2022/05/07 08:33:06;;;;;;;;;;;21.20;97.00;;;;;;5009810;28;19936;-60
2022/05/07 08:35:33;;;;;;;;;;;21.20;97.00;;;;;;5005242;28;19934;-59
2022/05/07 08:38:00;;;;;;;;;;;21.20;97.00;;;;;;5007671;28;19929;-60
2022/05/07 08:40:28;;;;;;;;;;;21.20;97.00;;;;;;5007177;28;19925;-60
2022/05/07 08:42:55;;;;;;;;;;;21.20;97.30;;;;;;4995894;28;20174;-59
2022/05/07 08:45:23;;;;;;;;;;;21.20;97.40;;;;;;5004643;28;19933;-60
2022/05/07 08:47:53;;;;;;;;;;;21.20;97.50;;;;;;5004509;28;20293;-63
2022/05/07 08:50:21;;;;;;;;;;;21.20;97.60;;;;;;5014551;28;19929;-59
2022/05/07 08:52:49;;;;;;;;;;;21.20;97.60;;;;;;5001635;28;19930;-59
2022/05/07 08:55:16;;;;;;;;;;;21.20;97.60;;;;;;5004980;28;20503;-62
2022/05/07 08:57:44;;;;;;;;;;;21.30;97.30;;;;;;4999492;28;20033;-61
2022/05/07 09:00:13;;;;;;;;;;;21.30;96.90;;;;;;4999689;28;19933;-58
2022/05/07 09:02:42;;;;;;;;;;;21.20;96.80;;;;;;5003080;28;19929;-61
2022/05/07 09:05:10;;;;;;;;;;;21.30;96.70;;;;;;5004072;28;19934;-60
2022/05/07 09:07:39;;;;;;;;;;;21.30;96.60;;;;;;5000478;28;20423;-58
2022/05/07 09:10:11;;;;;;;;;;;21.30;96.60;;;;;;5006957;28;20084;-59
2022/05/07 09:12:38;;;;;;;;;;;21.30;96.50;;;;;;5001535;28;19932;-60
2022/05/07 09:15:06;;;;;;;;;;;21.30;96.40;;;;;;5001450;28;19929;-59
2022/05/07 09:17:34;;;;;;;;;;;21.30;96.30;;;;;;5003093;28;20329;-57
2022/05/07 09:20:10;;;;;;;;;;;21.30;96.40;;;;;;5001712;28;20337;-60
2022/05/07 09:23:06;;;;;;;;;;;21.30;96.30;;;;;;5008727;28;19956;-59
2022/05/07 09:25:34;;;;;;;;;;;21.30;96.30;;;;;;5014706;28;20298;-60
2022/05/07 09:28:01;;;;;;;;;;;21.30;96.10;;;;;;4996153;28;19936;-57
2022/05/07 09:30:30;;;;;;;;;;;21.40;96.10;;;;;;5000278;28;19933;-57
2022/05/07 09:32:57;;;;;;;;;;;21.40;96.10;;;;;;4998347;28;19929;-58
2022/05/07 09:38:15;;;;;;;;;;;21.40;96.10;;;;;;4996557;28;19948;-61
2022/05/07 09:40:43;;;;;;;;;;;21.40;96.10;;;;;;5005291;28;19936;-59
2022/05/07 09:43:11;;;;;;;;;;;21.40;95.80;;;;;;5006529;28;20364;-61
2022/05/07 09:45:39;;;;;;;;;;;21.40;96.30;;;;;;5011171;28;19929;-61
2022/05/07 09:48:06;;;;;;;;;;;21.40;95.90;;;;;;5003370;28;19930;-57
2022/05/07 09:58:41;;;;;;;;;;;21.40;95.70;;;;;;5004026;28;20105;-60
2022/05/07 10:01:20;;;;;;;;;;;21.40;95.80;;;;;;5003124;28;20316;-59
2022/05/07 10:03:53;;;;;;;;;;;21.40;95.60;;;;;;5022549;28;19926;-62
2022/05/07 10:06:23;;;;;;;;;;;21.40;95.20;;;;;;5009650;28;20495;-62
2022/05/07 10:09:17;;;;;;;;;;;21.40;94.90;;;;;;5007709;28;20023;-62
2022/05/07 10:11:50;;;;;;;;;;;21.40;95.00;;;;;;4997302;28;19940;-60
2022/05/07 10:14:24;;;;;;;;;;;21.40;95.10;;;;;;5007952;28;20280;-59
2022/05/07 10:16:58;;;;;;;;;;;21.40;95.70;;;;;;5000753;28;20032;-61
2022/05/07 10:19:42;;;;;;;;;;;21.40;96.40;;;;;;5012364;28;20269;-59
2022/05/07 10:22:16;;;;;;;;;;;21.40;97.50;;;;;;5014345;28;19932;-59
2022/05/07 10:24:44;;;;;;;;;;;21.40;97.50;;;;;;5006139;28;19929;-61
2022/05/07 10:27:22;;;;;;;;;;;21.50;97.30;;;;;;5006409;28;20320;-63
2022/05/07 10:29:50;;;;;;;;;;;21.50;97.20;;;;;;5002874;28;20472;-62
2022/05/07 10:32:19;;;;;;;;;;;21.50;97.70;;;;;;5009227;28;19929;-64
2022/05/07 10:34:50;;;;;;;;;;;21.50;97.80;;;;;;5003891;28;19929;-66
2022/05/07 10:37:18;;;;;;;;;;;21.50;97.30;;;;;;4988534;28;19930;-63
2022/05/07 10:39:52;;;;;;;;;;;21.50;97.60;;;;;;5003636;28;19934;-61
2022/05/07 10:42:21;;;;;;;;;;;21.50;93.60;;;;;;5004288;28;19948;-59
2022/05/07 10:44:49;;;;;;;;;;;21.40;93.30;;;;;;4988631;28;20361;-61
2022/05/07 10:47:19;;;;;;;;;;;21.30;93.80;;;;;;5010226;28;21498;-58
2022/05/07 10:49:50;;;;;;;;;;;21.30;91.20;;;;;;5005184;28;19930;-62
2022/05/07 10:52:31;;;;;;;;;;;21.40;89.30;;;;;;5004253;28;20373;-61
2022/05/07 10:55:05;;;;;;;;;;;21.30;90.50;;;;;;5008882;28;19929;-55
2022/05/07 10:57:40;;;;;;;;;;;21.30;88.10;;;;;;5002361;28;19925;-54
2022/05/07 11:00:10;;;;;;;;;;;21.30;90.10;;;;;;5029962;28;19930;-58
2022/05/07 11:02:38;;;;;;;;;;;21.30;83.60;;;;;;5001309;28;19944;-56
2022/05/07 11:05:06;;;;;;;;;;;21.20;83.60;;;;;;5005664;28;19934;-55
2022/05/07 11:07:34;;;;;;;;;;;21.20;89.40;;;;;;5001393;28;19932;-58
2022/05/07 11:10:02;;;;;;;;;;;21.30;87.80;;;;;;5006309;28;20016;-55
2022/05/07 11:12:30;;;;;;;;;;;21.30;89.80;;;;;;4999848;28;19947;-54
2022/05/07 11:14:57;;;;;;;;;;;21.30;89.40;;;;;;5005580;28;19932;-58
2022/05/07 11:17:43;;;;;;;;;;;21.30;89.40;;;;;;4999382;28;19933;-54
2022/05/07 11:20:11;;;;;;;;;;;21.30;83.70;;;;;;5005715;28;19940;-57
2022/05/07 11:22:40;;;;;;;;;;;21.40;88.20;;;;;;5015534;28;19948;-56
2022/05/07 11:25:10;;;;;;;;;;;21.40;85.70;;;;;;5013634;28;19930;-57
2022/05/07 11:27:37;;;;;;;;;;;21.30;85.30;;;;;;5009469;28;19956;-56
2022/05/07 11:30:04;;;;;;;;;;;21.30;82.60;;;;;;5001861;28;20397;-59
2022/05/07 11:32:36;;;;;;;;;;;21.40;83.50;;;;;;5000233;28;20439;-58
2022/05/07 11:35:04;;;;;;;;;;;21.40;80.90;;;;;;5005808;28;19925;-57
2022/05/07 11:37:39;;;;;;;;;;;21.40;81.40;;;;;;5004502;28;20328;-56
2022/05/07 11:40:07;;;;;;;;;;;21.40;84.00;;;;;;5002763;28;19930;-56
2022/05/07 11:42:43;;;;;;;;;;;21.40;83.20;;;;;;5006291;28;20376;-58
2022/05/07 11:45:26;;;;;;;;;;;21.40;79.40;;;;;;5006825;28;19929;-58
2022/05/07 11:47:57;;;;;;;;;;;21.40;81.00;;;;;;5005316;28;20342;-55
2022/05/07 11:50:31;;;;;;;;;;;21.40;79.20;;;;;;5001376;28;19926;-57
2022/05/07 11:53:12;;;;;;;;;;;21.30;82.10;;;;;;4994211;28;19933;-54
2022/05/07 11:55:40;;;;;;;;;;;21.30;78.40;;;;;;5002785;28;20308;-56
2022/05/07 11:58:21;;;;;;;;;;;21.40;78.10;;;;;;5003112;28;20471;-56
2022/05/07 12:00:49;;;;;;;;;;;21.30;82.10;;;;;;5007304;28;19926;-54
2022/05/07 12:03:17;;;;;;;;;;;21.30;82.70;;;;;;4997105;28;19945;-57
2022/05/07 12:05:48;;;;;;;;;;;21.30;82.30;;;;;;4993498;28;19948;-56
2022/05/07 12:08:17;;;;;;;;;;;21.30;80.10;;;;;;4990509;28;19946;-58
2022/05/07 12:10:45;;;;;;;;;;;21.30;80.40;;;;;;5004779;28;20432;-59
2022/05/07 12:13:15;;;;;;;;;;;21.30;80.90;;;;;;4994170;28;19936;-57
2022/05/07 12:18:34;;;;;;;;;;;21.30;82.80;;;;;;4999484;28;19933;-58
2022/05/07 12:21:01;;;;;;;;;;;21.30;81.90;;;;;;5007510;28;20369;-56
2022/05/07 12:29:49;;;;;;;;;;;21.40;80.80;;;;;;5005276;28;19933;-58
2022/05/07 12:31:52;;;;;;;;;;;21.40;80.00;;;;;;5006717;28;19933;-58
2022/05/07 12:34:21;;;;;;;;;;;21.40;79.90;;;;;;4997504;28;19937;-57
2022/05/07 12:36:49;;;;;;;;;;;21.40;79.60;;;;;;4995406;28;19940;-57
2022/05/07 12:39:16;;;;;;;;;;;21.40;79.50;;;;;;4997477;28;20444;-55
2022/05/07 12:41:43;;;;;;;;;;;21.50;80.10;;;;;;4999781;28;19929;-53
2022/05/07 12:44:11;;;;;;;;;;;21.50;79.10;;;;;;4991707;28;19934;-58
2022/05/07 12:46:40;;;;;;;;;;;21.50;79.20;;;;;;5005389;28;19946;-56
2022/05/07 12:49:08;;;;;;;;;;;21.50;79.50;;;;;;4995914;28;19933;-58
2022/05/07 12:51:36;;;;;;;;;;;21.60;78.70;;;;;;5000860;28;19937;-57
2022/05/07 12:54:31;;;;;;;;;;;21.60;79.00;;;;;;5007975;28;19933;-58
2022/05/07 12:57:05;;;;;;;;;;;21.70;78.70;;;;;;5002883;28;19953;-59
2022/05/07 12:59:32;;;;;;;;;;;21.60;79.20;;;;;;5006776;28;19940;-58
2022/05/07 13:02:03;;;;;;;;;;;21.60;80.60;;;;;;5034428;28;19941;-55
2022/05/07 13:04:32;;;;;;;;;;;21.60;82.00;;;;;;5002166;28;19933;-57
2022/05/07 13:06:59;;;;;;;;;;;21.60;81.80;;;;;;4998678;28;20312;-54
2022/05/07 13:09:26;;;;;;;;;;;21.60;80.80;;;;;;4987003;28;20416;-57
2022/05/07 13:12:14;;;;;;;;;;;21.70;79.50;;;;;;4987945;28;19936;-58
2022/05/07 13:14:41;;;;;;;;;;;21.80;79.00;;;;;;4991364;28;19930;-57
2022/05/07 13:17:08;;;;;;;;;;;21.80;78.80;;;;;;5011583;28;19993;-57
2022/05/07 13:19:35;;;;;;;;;;;21.90;79.20;;;;;;5007774;28;20289;-59
2022/05/07 13:22:03;;;;;;;;;;;21.80;81.50;;;;;;5006559;28;20009;-57
2022/05/07 13:24:30;;;;;;;;;;;21.80;80.50;;;;;;4997223;28;19926;-52
2022/05/07 13:26:57;;;;;;;;;;;21.80;81.00;;;;;;4993439;28;19929;-55
2022/05/07 13:29:24;;;;;;;;;;;21.80;80.90;;;;;;4992525;28;19945;-59
2022/05/07 13:31:51;;;;;;;;;;;21.90;78.80;;;;;;4990831;28;19940;-58
2022/05/07 13:34:20;;;;;;;;;;;22.00;79.30;;;;;;4990773;28;19933;-59
2022/05/07 13:36:50;;;;;;;;;;;21.90;80.80;;;;;;4996380;28;19998;-56
2022/05/07 13:39:17;;;;;;;;;;;21.90;81.00;;;;;;5000725;28;19930;-58
2022/05/07 13:41:44;;;;;;;;;;;21.90;81.20;;;;;;4998245;28;20250;-56
2022/05/07 13:44:11;;;;;;;;;;;22.00;79.50;;;;;;5002264;28;19940;-58
2022/05/07 13:46:40;;;;;;;;;;;22.10;80.70;;;;;;5002837;28;20035;-56
2022/05/07 13:49:08;;;;;;;;;;;21.90;80.90;;;;;;4993537;28;20388;-58
2022/05/07 13:51:35;;;;;;;;;;;21.90;79.70;;;;;;4994442;28;20361;-58
2022/05/07 13:54:02;;;;;;;;;;;22.00;79.80;;;;;;4985419;28;19945;-59
2022/05/07 13:56:29;;;;;;;;;;;22.00;79.10;;;;;;5003507;28;19926;-57
2022/05/07 13:58:56;;;;;;;;;;;21.90;79.50;;;;;;5002100;28;20447;-58
2022/05/07 14:01:27;;;;;;;;;;;22.00;79.20;;;;;;5004322;28;19949;-59
2022/05/07 14:03:54;;;;;;;;;;;22.10;79.00;;;;;;4988240;28;19926;-56
2022/05/07 14:06:22;;;;;;;;;;;22.10;79.40;;;;;;4994999;28;20319;-57
2022/05/07 14:08:50;;;;;;;;;;;22.20;79.50;;;;;;4987871;28;20308;-56
2022/05/07 14:11:17;;;;;;;;;;;22.30;78.40;;;;;;5001801;28;19941;-58
2022/05/07 14:13:45;;;;;;;;;;;22.40;78.50;;;;;;4991171;28;19933;-59
2022/05/07 14:16:12;;;;;;;;;;;22.40;78.80;;;;;;5006032;28;20016;-52
2022/05/07 14:18:39;;;;;;;;;;;22.40;79.20;;;;;;4989644;28;20309;-57
2022/05/07 14:21:07;;;;;;;;;;;22.40;79.10;;;;;;5004104;28;19929;-58
2022/05/07 14:23:34;;;;;;;;;;;22.40;79.30;;;;;;4989539;28;19941;-57
2022/05/07 14:26:01;;;;;;;;;;;22.50;79.30;;;;;;4997559;28;19948;-57
2022/05/07 14:28:30;;;;;;;;;;;22.60;78.20;;;;;;4993508;28;19930;-56
2022/05/07 14:30:58;;;;;;;;;;;22.60;79.00;;;;;;5001054;28;19936;-58
2022/05/07 14:33:25;;;;;;;;;;;22.50;79.70;;;;;;4994465;28;19936;-58
2022/05/07 14:35:52;;;;;;;;;;;22.50;80.80;;;;;;5006428;28;19933;-58
2022/05/07 14:38:20;;;;;;;;;;;22.50;80.90;;;;;;5005795;28;19930;-56
2022/05/07 14:40:48;;;;;;;;;;;22.50;81.20;;;;;;5005448;28;19932;-57
2022/05/07 14:43:17;;;;;;;;;;;22.40;81.00;;;;;;4988924;28;19952;-55
2022/05/07 14:45:44;;;;;;;;;;;22.50;81.10;;;;;;5008290;28;19925;-56
2022/05/07 14:48:11;;;;;;;;;;;22.50;79.00;;;;;;4997181;28;19930;-58
2022/05/07 14:50:38;;;;;;;;;;;22.70;79.10;;;;;;5005153;28;19929;-54
2022/05/07 14:53:06;;;;;;;;;;;22.70;78.90;;;;;;4994732;28;20352;-57
2022/05/07 14:55:34;;;;;;;;;;;22.80;79.20;;;;;;4996853;28;19929;-57
2022/05/07 14:58:04;;;;;;;;;;;22.80;78.70;;;;;;5006929;28;19960;-56
2022/05/07 15:00:31;;;;;;;;;;;22.90;78.70;;;;;;5006049;28;19930;-58
2022/05/07 15:02:58;;;;;;;;;;;22.90;79.30;;;;;;4993537;28;20425;-59
2022/05/07 15:05:25;;;;;;;;;;;22.90;78.60;;;;;;5002295;28;19929;-58
2022/05/07 15:07:53;;;;;;;;;;;22.90;79.90;;;;;;4992922;28;19937;-57
2022/05/07 15:10:38;;;;;;;;;;;22.90;78.80;;;;;;4998396;28;19929;-57
2022/05/07 15:13:09;;;;;;;;;;;23.00;79.30;;;;;;4990265;28;20290;-54